Gujrat Weather



Gujrat's Current Weather

Temprature 24.98o clear sky

clear sky

Rain: 0 %

Min Temprature24.46o
Max Temprature24.98o
Humidity66
Wind Speed1.71 m/h
Sun Rise05:54:06
Sun Set17:56:10
Current Time: 26-Sep-2022 08:15:51
Lat/Lon: 32.5728, 74.079




Gujrat's Geo Location



Gujrat's Weather Forecast

Time Overall Temp Min Temp Max Temp Humidity Wind Speed Rain
26-Sep-2022 (Mon)
11:00:00 clear sky 26.220 26.220 28.710 60 1.31 m/h 0 %
14:00:00 clear sky 29.230 29.230 31.360 51 1.61 m/h 0 %
17:00:00 clear sky 30.120 30.120 30.120 54 1.78 m/h 0 %
20:00:00 clear sky 26.120 26.120 26.120 59 1.9 m/h 0 %
23:00:00 clear sky 24.810 24.810 24.810 63 0.63 m/h 0 %
27-Sep-2022 (Tue)
02:00:00 clear sky 23.220 23.220 23.220 72 1.96 m/h 0 %
05:00:00 clear sky 22.360 22.360 22.360 77 1.83 m/h 0 %
08:00:00 clear sky 25.420 25.420 25.420 67 1.52 m/h 0 %
11:00:00 clear sky 30.820 30.820 30.820 51 0.79 m/h 0 %
14:00:00 clear sky 32.900 32.900 32.900 44 0.78 m/h 0 %
17:00:00 clear sky 31.630 31.630 31.630 51 0.28 m/h 0 %
20:00:00 clear sky 27.260 27.260 27.260 60 1.89 m/h 0 %
23:00:00 clear sky 25.260 25.260 25.260 69 2.08 m/h 0 %
28-Sep-2022 (Wed)
02:00:00 clear sky 24.340 24.340 24.340 73 2.16 m/h 0 %
05:00:00 clear sky 23.380 23.380 23.380 78 2.04 m/h 0 %
08:00:00 clear sky 26.320 26.320 26.320 70 2.05 m/h 0 %
11:00:00 clear sky 30.970 30.970 30.970 53 2.34 m/h 0 %
14:00:00 clear sky 33.580 33.580 33.580 43 1.01 m/h 0 %
17:00:00 clear sky 32.030 32.030 32.030 51 1.21 m/h 0 %
20:00:00 clear sky 27.640 27.640 27.640 60 2.23 m/h 0 %
23:00:00 clear sky 25.790 25.790 25.790 68 2.05 m/h 0 %
29-Sep-2022 (Thu)
02:00:00 clear sky 24.680 24.680 24.680 73 1.91 m/h 0 %
05:00:00 clear sky 23.830 23.830 23.830 77 1.79 m/h 0 %
08:00:00 clear sky 26.620 26.620 26.620 68 2.38 m/h 0 %
11:00:00 clear sky 31.180 31.180 31.180 53 2.22 m/h 0 %
14:00:00 clear sky 33.940 33.940 33.940 42 1.07 m/h 0 %
17:00:00 clear sky 32.510 32.510 32.510 48 0.86 m/h 0 %
20:00:00 clear sky 28.090 28.090 28.090 57 2.27 m/h 0 %
23:00:00 clear sky 26.390 26.390 26.390 64 0.88 m/h 0 %
30-Sep-2022 (Fri)
02:00:00 few clouds 25.250 25.250 25.250 68 1.54 m/h 0 %
05:00:00 clear sky 24.150 24.150 24.150 73 1.5 m/h 0 %
08:00:00 clear sky 26.610 26.610 26.610 64 2.72 m/h 0 %
11:00:00 clear sky 31.390 31.390 31.390 50 1.83 m/h 0 %
14:00:00 clear sky 34.410 34.410 34.410 38 0.88 m/h 0 %
17:00:00 clear sky 32.760 32.760 32.760 45 0.3 m/h 0 %
20:00:00 clear sky 28.520 28.520 28.520 52 1.92 m/h 0 %
23:00:00 clear sky 26.090 26.090 26.090 63 2.51 m/h 0 %
01-Oct-2022 (Sat)
02:00:00 clear sky 24.840 24.840 24.840 69 1.93 m/h 0 %
05:00:00 clear sky 23.870 23.870 23.870 73 1.72 m/h 0 %
08:00:00 clear sky 26.670 26.670 26.670 64 2.61 m/h 0 %

Famous Cities (61)